Time;durP1;ratioP1;P1;durP2;ratioP2;P2;SDS_P1;SDS_P2;PMS_P1;PMS_P2;Temp;Humidity;BMP_temperature;BMP_pressure;BME280_temperature;BME280_humidity;BME280_pressure;Samples;Min_cycle;Max_cycle;Signal;HPM_P1;HPM_P2
2022/05/01 00:01:53;;;;;;;20.48;11.45;;;12.50;96.00;;;;;;6254824;28;20045;-81
2022/05/01 00:04:56;;;;;;;20.02;11.95;;;12.60;96.10;;;;;;6255674;28;20148;-80
2022/05/01 00:07:59;;;;;;;19.58;10.93;;;12.60;96.00;;;;;;6252891;28;20041;-80
2022/05/01 00:11:02;;;;;;;25.25;11.85;;;12.60;96.00;;;;;;6255293;28;20052;-81
2022/05/01 00:14:04;;;;;;;19.63;12.32;;;12.60;96.00;;;;;;6256268;28;20089;-80
2022/05/01 00:17:06;;;;;;;14.95;10.27;;;12.60;95.80;;;;;;6254488;28;20511;-80
2022/05/01 00:20:10;;;;;;;16.55;10.52;;;12.60;96.10;;;;;;6255815;28;20128;-80
2022/05/01 00:23:12;;;;;;;16.92;10.98;;;12.50;95.90;;;;;;6257458;28;20536;-80
2022/05/01 00:26:15;;;;;;;16.50;10.38;;;12.50;96.00;;;;;;6262735;28;20064;-80
2022/05/01 00:29:17;;;;;;;19.70;11.27;;;12.50;96.00;;;;;;6260390;28;20109;-81
2022/05/01 00:32:18;;;;;;;17.92;11.52;;;12.50;95.90;;;;;;6257864;28;20129;-80
2022/05/01 00:38:39;;;;;;;24.08;13.25;;;12.40;96.00;;;;;;6257038;28;20498;-81
2022/05/01 00:41:46;;;;;;;19.33;11.10;;;12.50;96.10;;;;;;6256461;28;20124;-80
2022/05/01 00:44:47;;;;;;;20.80;11.35;;;12.50;96.00;;;;;;6256041;28;20114;-80
2022/05/01 00:47:49;;;;;;;18.17;10.55;;;12.50;95.90;;;;;;6256328;28;20536;-80
2022/05/01 00:50:53;;;;;;;19.63;11.07;;;12.40;95.90;;;;;;6256943;28;20057;-81
2022/05/01 00:53:55;;;;;;;18.35;11.13;;;12.40;95.90;;;;;;6255907;28;20517;-80
2022/05/01 00:56:59;;;;;;;16.00;10.38;;;12.40;96.20;;;;;;6254900;28;20475;-80
2022/05/01 01:00:01;;;;;;;20.92;11.82;;;12.30;95.90;;;;;;6254302;28;20055;-82
2022/05/01 01:03:03;;;;;;;16.15;10.90;;;12.20;96.10;;;;;;6253592;28;20419;-80
2022/05/01 01:06:05;;;;;;;20.98;11.52;;;12.10;96.30;;;;;;6254651;28;20064;-81
2022/05/01 01:09:08;;;;;;;21.83;13.02;;;12.10;96.40;;;;;;6254474;28;20095;-81
2022/05/01 01:15:43;;;;;;;17.98;9.98;;;12.20;96.30;;;;;;6254209;28;20045;-81
2022/05/01 01:18:45;;;;;;;19.58;12.45;;;12.10;96.30;;;;;;6254724;28;20049;-80
2022/05/01 01:21:53;;;;;;;15.73;10.73;;;12.10;96.40;;;;;;6254004;28;20115;-80
2022/05/01 01:24:55;;;;;;;19.40;10.98;;;12.10;96.40;;;;;;6254823;28;20052;-81
2022/05/01 01:28:02;;;;;;;18.55;10.82;;;12.00;96.40;;;;;;6254249;28;20037;-81
2022/05/01 01:34:32;;;;;;;20.67;12.48;;;11.90;96.50;;;;;;6255192;28;20045;-80
2022/05/01 01:37:36;;;;;;;18.92;11.25;;;11.90;96.50;;;;;;6254034;28;20510;-81
2022/05/01 01:40:43;;;;;;;22.58;11.20;;;11.90;96.40;;;;;;6253932;28;20053;-80
2022/05/01 01:43:46;;;;;;;20.17;10.95;;;11.90;96.40;;;;;;6254853;28;20485;-80
2022/05/01 01:46:48;;;;;;;22.60;10.45;;;11.90;96.50;;;;;;6255158;28;20060;-80
2022/05/01 01:49:50;;;;;;;22.35;12.35;;;11.90;96.60;;;;;;6254034;28;20128;-81
2022/05/01 01:52:53;;;;;;;25.30;12.77;;;11.80;96.50;;;;;;6255095;28;20096;-82
2022/05/01 01:55:54;;;;;;;36.47;14.50;;;11.70;96.70;;;;;;6254418;28;20045;-81
2022/05/01 01:58:56;;;;;;;20.98;13.10;;;11.70;96.80;;;;;;6253612;28;20056;-80
2022/05/01 02:01:58;;;;;;;22.02;12.38;;;11.60;96.80;;;;;;6254726;28;20084;-82
2022/05/01 02:05:00;;;;;;;19.83;11.38;;;11.60;96.90;;;;;;6254596;28;20045;-81
2022/05/01 02:08:05;;;;;;;19.25;12.52;;;11.70;97.00;;;;;;6255191;28;20503;-81
2022/05/01 02:11:07;;;;;;;24.30;14.32;;;11.70;96.90;;;;;;6255247;28;20073;-81
2022/05/01 02:14:10;;;;;;;23.17;12.75;;;11.80;96.80;;;;;;6259336;28;20068;-80
2022/05/01 02:17:12;;;;;;;22.90;12.70;;;11.90;96.70;;;;;;6261703;28;20051;-79
2022/05/01 02:20:13;;;;;;;23.55;12.95;;;11.90;96.70;;;;;;6256631;28;20049;-81
2022/05/01 02:23:17;;;;;;;22.17;13.50;;;11.90;96.70;;;;;;6254554;28;20517;-80
2022/05/01 02:26:18;;;;;;;22.00;11.80;;;11.90;96.60;;;;;;6276223;23;20053;-82
2022/05/01 02:29:20;;;;;;;20.85;13.13;;;11.90;96.60;;;;;;6183381;28;20267;-82
2022/05/01 02:32:22;;;;;;;23.40;13.65;;;11.90;96.60;;;;;;6184438;28;20508;-82
2022/05/01 02:35:24;;;;;;;25.35;12.93;;;11.90;96.60;;;;;;6185695;28;20051;-83
2022/05/01 02:38:27;;;;;;;23.77;14.52;;;12.00;96.50;;;;;;6185014;28;20058;-82
2022/05/01 02:41:29;;;;;;;22.23;12.40;;;12.00;96.50;;;;;;6185111;28;20221;-82
2022/05/01 02:44:30;;;;;;;17.75;11.48;;;12.00;96.50;;;;;;6184283;28;20051;-81
2022/05/01 02:47:33;;;;;;;21.70;11.70;;;11.90;96.50;;;;;;6182650;28;20183;-81
2022/05/01 02:50:36;;;;;;;17.70;11.75;;;11.90;96.60;;;;;;6181277;28;20182;-81
2022/05/01 02:53:39;;;;;;;19.30;13.00;;;11.80;96.70;;;;;;6183131;28;20046;-81
2022/05/01 02:56:41;;;;;;;21.65;12.85;;;11.80;96.70;;;;;;6184505;28;20508;-83
2022/05/01 02:59:43;;;;;;;23.45;13.38;;;11.90;96.60;;;;;;6183474;28;20127;-83
2022/05/01 03:02:45;;;;;;;18.85;12.52;;;11.90;96.60;;;;;;6184150;28;20053;-83
2022/05/01 03:05:48;;;;;;;30.40;15.48;;;11.90;96.60;;;;;;6182915;28;20061;-83
2022/05/01 03:08:51;;;;;;;18.63;11.60;;;11.90;96.60;;;;;;6183108;28;20058;-84
2022/05/01 03:11:53;;;;;;;26.58;13.40;;;12.00;96.60;;;;;;6183420;28;20047;-83
2022/05/01 03:14:54;;;;;;;21.88;13.20;;;12.10;96.50;;;;;;6184221;28;20102;-82
2022/05/01 03:24:36;;;;;;;26.48;13.15;;;12.00;96.50;;;;;;6182878;28;20150;-83
2022/05/01 03:27:38;;;;;;;23.33;13.48;;;12.00;96.50;;;;;;6181765;28;20043;-82
2022/05/01 03:30:40;;;;;;;21.50;13.30;;;12.00;96.50;;;;;;6183897;28;20059;-84
2022/05/01 03:33:42;;;;;;;23.88;13.00;;;12.00;96.50;;;;;;6185533;28;20103;-83
2022/05/01 03:36:44;;;;;;;26.58;12.90;;;12.00;96.50;;;;;;6186142;28;20055;-84
2022/05/01 03:39:47;;;;;;;20.85;12.95;;;12.10;96.50;;;;;;6187069;28;20038;-84
2022/05/01 03:42:49;;;;;;;21.50;13.55;;;12.10;96.50;;;;;;6186887;28;20090;-83
2022/05/01 03:45:51;;;;;;;21.65;13.35;;;12.10;96.50;;;;;;6185009;28;20047;-82
2022/05/01 03:48:53;;;;;;;20.70;12.45;;;12.10;96.50;;;;;;6184638;28;20078;-83
2022/05/01 03:51:56;;;;;;;17.55;12.57;;;12.10;96.40;;;;;;6184312;28;20054;-82
2022/05/01 03:54:59;;;;;;;22.45;12.15;;;12.00;96.30;;;;;;6185062;28;20058;-82
2022/05/01 03:58:01;;;;;;;21.40;12.48;;;12.00;96.40;;;;;;6182866;28;20057;-82
2022/05/01 04:01:03;;;;;;;22.58;12.82;;;11.90;96.40;;;;;;6176434;28;20055;-83
2022/05/01 04:04:05;;;;;;;23.40;13.02;;;11.90;96.60;;;;;;6183440;28;20050;-83
2022/05/01 04:07:06;;;;;;;21.85;13.65;;;11.70;96.60;;;;;;6181961;28;20058;-82
2022/05/01 04:10:11;;;;;;;19.75;12.43;;;11.70;96.60;;;;;;6183515;28;20086;-83
2022/05/01 04:13:14;;;;;;;24.92;13.23;;;11.60;96.60;;;;;;6182754;28;20043;-81
2022/05/01 04:16:15;;;;;;;21.08;11.60;;;11.60;96.60;;;;;;6183866;28;20450;-82
2022/05/01 04:19:17;;;;;;;26.98;13.18;;;11.50;96.70;;;;;;6182916;28;20256;-81
2022/05/01 04:22:20;;;;;;;22.15;13.05;;;11.50;96.80;;;;;;6182577;28;20110;-82
2022/05/01 04:25:25;;;;;;;24.40;13.02;;;11.50;96.70;;;;;;6183055;28;20125;-83
2022/05/01 04:28:26;;;;;;;23.33;13.02;;;11.50;96.80;;;;;;6181371;28;20051;-82
2022/05/01 04:31:28;;;;;;;32.28;12.82;;;11.60;96.70;;;;;;6181517;28;20043;-83
2022/05/01 04:34:30;;;;;;;27.67;14.68;;;11.60;96.60;;;;;;6182626;28;20054;-82
2022/05/01 04:37:32;;;;;;;22.48;12.65;;;11.70;96.60;;;;;;6180718;28;20051;-83
2022/05/01 04:40:38;;;;;;;31.38;15.23;;;11.70;96.60;;;;;;6180984;28;20046;-82
2022/05/01 04:43:40;;;;;;;27.17;15.00;;;11.80;96.50;;;;;;6180735;28;20050;-81
2022/05/01 04:46:43;;;;;;;29.90;15.13;;;11.80;96.60;;;;;;6181806;28;20046;-83
2022/05/01 04:49:45;;;;;;;29.63;16.55;;;11.90;96.40;;;;;;6181458;28;20057;-84
2022/05/01 04:52:47;;;;;;;27.02;13.90;;;12.00;96.40;;;;;;6181197;28;20043;-83
2022/05/01 04:55:52;;;;;;;22.40;14.82;;;12.10;96.40;;;;;;6180771;28;20053;-81
2022/05/01 04:58:54;;;;;;;27.10;14.48;;;12.10;96.30;;;;;;6180387;28;20163;-83
2022/05/01 05:01:56;;;;;;;23.13;13.32;;;12.20;96.20;;;;;;6156787;28;20051;-82
2022/05/01 05:04:57;;;;;;;25.42;14.40;;;12.20;96.10;;;;;;6156894;28;20536;-83
2022/05/01 05:09:53;;;;;;;20.58;13.73;;;12.30;96.10;;;;;;6156170;28;20657;-82
2022/05/01 05:11:22;;;;;;;28.17;13.52;;;12.30;96.00;;;;;;6159160;28;20078;-83
2022/05/01 05:14:24;;;;;;;26.30;15.05;;;12.40;96.00;;;;;;6180959;28;20066;-83
2022/05/01 05:17:26;;;;;;;28.92;14.57;;;12.50;95.90;;;;;;6180657;28;20043;-81
2022/05/01 05:20:27;;;;;;;32.17;15.75;;;12.60;95.70;;;;;;6181766;28;20051;-82
2022/05/01 05:23:29;;;;;;;31.67;13.95;;;12.70;95.70;;;;;;6184547;28;20046;-84
2022/05/01 05:26:32;;;;;;;23.02;13.38;;;12.70;95.60;;;;;;6182496;28;20086;-83
2022/05/01 05:29:34;;;;;;;22.13;13.18;;;12.80;95.50;;;;;;6179846;28;20054;-81
2022/05/01 05:32:37;;;;;;;21.13;12.93;;;12.90;95.30;;;;;;6181788;28;20057;-82
2022/05/01 05:35:38;;;;;;;22.42;13.45;;;12.90;95.20;;;;;;6181834;28;20174;-83
2022/05/01 05:38:40;;;;;;;22.58;13.55;;;12.90;95.10;;;;;;6182043;28;20074;-83
2022/05/01 05:41:43;;;;;;;21.02;12.10;;;12.90;95.00;;;;;;6181303;28;20050;-82
2022/05/01 05:44:45;;;;;;;21.63;12.82;;;13.00;94.90;;;;;;6180751;28;20058;-82
2022/05/01 05:48:37;;;;;;;22.05;13.18;;;13.20;94.70;;;;;;6211018;23;20356;-82
2022/05/01 06:00:04;;;;;;;18.30;11.65;;;13.60;94.30;;;;;;6076123;29;20107;-83
2022/05/01 06:07:54;;;;;;;15.95;9.88;;;14.30;93.80;;;;;;6081418;29;20052;-82
2022/05/01 06:22:47;;;;;;;15.25;10.27;;;15.20;90.60;;;;;;6180443;28;20137;-84
2022/05/01 06:26:14;;;;;;;;;;;;;;;;;;;;;
2022/05/01 06:30:15;;;;;;;17.83;9.55;;;15.40;90.20;;;;;;6191023;28;20074;-84
2022/05/01 06:33:53;;;;;;;21.52;8.88;;;15.80;89.50;;;;;;6172096;28;20543;-83
2022/05/01 06:41:19;;;;;;;13.05;7.75;;;17.70;80.80;;;;;;6029113;29;20052;-84
2022/05/01 06:44:21;;;;;;;12.73;7.35;;;17.90;79.00;;;;;;6079586;28;20085;-83
2022/05/01 06:47:23;;;;;;;16.58;9.43;;;17.90;79.00;;;;;;6207329;28;20506;-83
2022/05/01 06:50:26;;;;;;;14.15;8.00;;;18.00;77.70;;;;;;6205513;28;20057;-84
2022/05/01 06:53:28;;;;;;;12.23;7.80;;;18.10;76.70;;;;;;6205408;28;20118;-83
2022/05/01 06:56:29;;;;;;;9.82;6.93;;;18.00;76.60;;;;;;6205406;28;20056;-83
2022/05/01 06:59:31;;;;;;;19.17;8.15;;;17.80;76.70;;;;;;6207199;28;20070;-84
2022/05/01 07:02:33;;;;;;;12.95;8.02;;;17.70;76.50;;;;;;6210499;28;20058;-84
2022/05/01 07:05:36;;;;;;;14.93;7.80;;;17.50;76.50;;;;;;6209312;28;20043;-84
2022/05/01 07:08:38;;;;;;;12.93;8.75;;;17.50;77.10;;;;;;6209282;28;20415;-83
2022/05/01 07:11:39;;;;;;;16.20;9.35;;;17.50;76.50;;;;;;6206594;28;20086;-82
2022/05/01 07:14:41;;;;;;;15.13;8.82;;;17.60;77.00;;;;;;6207021;28;20057;-84
2022/05/01 07:17:43;;;;;;;11.82;8.23;;;17.70;76.60;;;;;;6206002;28;20054;-83
2022/05/01 07:20:47;;;;;;;16.55;9.30;;;17.80;75.90;;;;;;6205973;28;20042;-83
2022/05/01 07:23:48;;;;;;;14.85;9.10;;;17.80;75.60;;;;;;6206470;28;20048;-83
2022/05/01 07:26:50;;;;;;;16.70;9.40;;;17.60;75.50;;;;;;6207316;28;20137;-82
2022/05/01 07:29:52;;;;;;;13.90;8.88;;;17.50;75.70;;;;;;6205048;28;20046;-83
2022/05/01 07:32:54;;;;;;;17.27;11.15;;;17.40;76.30;;;;;;6206780;28;20057;-83
2022/05/01 07:35:57;;;;;;;12.40;9.05;;;17.30;76.00;;;;;;6211080;28;20053;-83
2022/05/01 07:38:59;;;;;;;11.55;9.50;;;17.30;75.70;;;;;;6209774;28;20050;-82
2022/05/01 07:42:01;;;;;;;12.43;9.18;;;17.00;75.70;;;;;;6208668;28;20539;-81
2022/05/01 07:45:04;;;;;;;13.25;9.40;;;16.90;76.10;;;;;;6207259;28;20052;-82
2022/05/01 07:48:06;;;;;;;16.55;10.48;;;16.90;76.40;;;;;;6206200;28;20038;-83
2022/05/01 07:51:09;;;;;;;15.27;10.52;;;17.00;76.30;;;;;;6207576;28;20050;-83
2022/05/01 07:54:11;;;;;;;15.85;10.23;;;17.20;76.30;;;;;;6183452;28;20117;-83
2022/05/01 07:57:12;;;;;;;15.73;9.57;;;17.50;75.50;;;;;;6203992;28;20420;-83
2022/05/01 08:00:15;;;;;;;15.82;10.75;;;17.90;74.50;;;;;;6206158;28;20158;-80
2022/05/01 08:06:37;;;;;;;15.73;10.77;;;18.60;71.00;;;;;;6225102;28;20054;-80
2022/05/01 08:09:39;;;;;;;16.90;10.07;;;18.90;70.00;;;;;;6209296;28;20050;-81
2022/05/01 08:12:41;;;;;;;16.15;10.63;;;19.30;69.90;;;;;;6211671;28;20050;-82
2022/05/01 08:15:43;;;;;;;10.85;9.15;;;19.70;69.40;;;;;;6209963;28;20064;-82
2022/05/01 08:22:06;;;;;;;15.27;8.23;;;21.00;65.50;;;;;;6210239;28;20539;-84
2022/05/01 08:25:08;;;;;;;15.18;8.82;;;21.60;63.70;;;;;;6208388;28;20124;-83
2022/05/01 08:28:10;;;;;;;12.13;8.85;;;22.00;62.30;;;;;;6255483;23;20049;-83
2022/05/01 08:31:13;;;;;;;16.23;8.45;;;22.50;61.20;;;;;;6274436;28;20651;-84
2022/05/01 08:34:16;;;;;;;11.40;8.25;;;23.20;58.20;;;;;;6275076;28;20057;-85
2022/05/01 08:37:20;;;;;;;12.88;8.88;;;23.20;57.10;;;;;;6282088;28;20045;-82
2022/05/01 08:40:21;;;;;;;12.07;8.18;;;22.70;57.10;;;;;;6298427;28;20611;-84
2022/05/01 08:43:27;;;;;;;11.75;8.13;;;21.90;58.30;;;;;;6299851;28;20412;-84
2022/05/01 08:46:55;;;;;;;12.38;8.88;;;21.00;60.90;;;;;;6307334;28;20044;-82
2022/05/01 08:49:59;;;;;;;9.13;7.88;;;20.30;62.80;;;;;;6304235;28;20048;-83
2022/05/01 08:53:03;;;;;;;11.43;7.45;;;19.70;63.80;;;;;;6302405;28;20740;-84
2022/05/01 08:56:07;;;;;;;10.18;7.45;;;19.30;65.30;;;;;;6300672;28;20529;-85
2022/05/01 08:59:10;;;;;;;10.50;7.32;;;19.20;66.70;;;;;;6297450;28;20063;-84
2022/05/01 09:02:12;;;;;;;14.73;8.88;;;19.30;66.70;;;;;;6300335;28;20059;-83
2022/05/01 09:05:15;;;;;;;11.73;8.20;;;19.20;66.80;;;;;;6301174;28;20498;-84
2022/05/01 09:08:18;;;;;;;17.60;8.07;;;19.50;66.50;;;;;;6301086;28;20043;-84
2022/05/01 09:14:41;;;;;;;12.63;7.63;;;20.40;65.50;;;;;;6301197;28;20076;-84
2022/05/01 09:18:00;;;;;;;17.30;8.55;;;22.30;61.80;;;;;;6299127;28;20040;-83
2022/05/01 09:21:04;;;;;;;11.82;7.22;;;23.60;57.00;;;;;;6301184;28;20075;-84
2022/05/01 09:24:08;;;;;;;13.40;8.48;;;23.40;56.10;;;;;;6301268;28;20497;-83
2022/05/01 09:27:27;;;;;;;10.10;7.60;;;22.70;57.10;;;;;;6301496;28;20494;-83
2022/05/01 09:30:33;;;;;;;8.82;7.03;;;22.00;58.50;;;;;;6301073;28;20048;-83
2022/05/01 09:33:35;;;;;;;15.15;7.10;;;21.40;59.80;;;;;;6300559;28;20044;-83
2022/05/01 09:36:37;;;;;;;10.40;8.05;;;21.00;61.00;;;;;;6299119;28;20048;-84
2022/05/01 09:39:40;;;;;;;12.15;8.70;;;20.80;61.90;;;;;;6300189;28;20497;-82
2022/05/01 09:42:42;;;;;;;13.13;8.02;;;20.70;62.40;;;;;;6301510;28;20055;-83
2022/05/01 09:45:45;;;;;;;10.98;7.47;;;20.70;62.60;;;;;;6299257;28;20040;-84
2022/05/01 09:48:58;;;;;;;11.65;7.78;;;20.90;62.30;;;;;;6299982;28;20081;-83
2022/05/01 09:52:00;;;;;;;12.25;7.63;;;21.10;61.20;;;;;;6299774;28;20036;-84
2022/05/01 09:55:05;;;;;;;11.00;7.88;;;21.40;60.80;;;;;;6298595;28;20048;-83
2022/05/01 09:58:09;;;;;;;13.77;8.48;;;21.70;60.50;;;;;;6298569;28;20053;-84
2022/05/01 10:01:12;;;;;;;11.88;7.80;;;21.90;59.00;;;;;;6299283;28;20048;-85
2022/05/01 10:04:15;;;;;;;11.75;8.18;;;22.00;58.60;;;;;;6300556;28;20186;-82
2022/05/01 10:07:18;;;;;;;10.40;8.38;;;22.00;58.70;;;;;;6297337;28;20041;-84
2022/05/01 10:10:22;;;;;;;10.20;7.63;;;22.00;58.80;;;;;;6292972;28;20048;-84
2022/05/01 10:13:25;;;;;;;11.75;8.43;;;22.00;58.60;;;;;;6301867;28;20045;-82
2022/05/01 10:16:27;;;;;;;9.70;7.05;;;22.20;58.20;;;;;;6303487;28;20045;-84
2022/05/01 10:19:31;;;;;;;11.55;8.15;;;22.40;57.70;;;;;;6291171;28;20173;-83
2022/05/01 10:22:34;;;;;;;11.55;7.57;;;22.70;57.20;;;;;;6300636;28;20143;-84
2022/05/01 10:25:45;;;;;;;11.52;6.53;;;22.90;56.00;;;;;;6296145;28;20190;-82
2022/05/01 10:29:11;;;;;;;9.02;6.80;;;23.10;55.40;;;;;;6287524;28;20698;-81
2022/05/01 10:32:35;;;;;;;11.70;6.95;;;23.40;55.20;;;;;;6288608;28;20052;-82
2022/05/01 10:36:20;;;;;;;8.77;6.57;;;23.90;53.90;;;;;;6303191;28;20498;-82
2022/05/01 10:39:24;;;;;;;12.27;6.68;;;23.90;53.10;;;;;;6305376;28;20082;-83
2022/05/01 10:42:36;;;;;;;12.70;7.40;;;23.80;52.70;;;;;;6305086;28;20439;-83
2022/05/01 10:45:44;;;;;;;14.15;7.40;;;23.80;52.20;;;;;;6303795;28;20036;-82
2022/05/01 10:48:46;;;;;;;10.13;6.70;;;23.80;52.50;;;;;;6303324;28;20045;-83
2022/05/01 10:51:52;;;;;;;7.88;5.80;;;23.70;52.70;;;;;;6303484;28;20048;-83
2022/05/01 10:54:56;;;;;;;9.63;7.15;;;23.70;52.10;;;;;;6303603;28;20041;-84
2022/05/01 10:58:22;;;;;;;14.75;6.40;;;23.60;52.50;;;;;;6301456;28;20167;-84
2022/05/01 11:01:52;;;;;;;11.45;7.85;;;23.50;52.30;;;;;;6302553;28;20056;-82
2022/05/01 11:04:54;;;;;;;9.15;6.63;;;23.50;52.40;;;;;;6301744;28;20045;-84
2022/05/01 11:07:57;;;;;;;9.07;6.65;;;23.40;52.20;;;;;;6299545;28;20062;-83
2022/05/01 11:11:02;;;;;;;13.15;7.40;;;23.40;52.00;;;;;;6293450;28;20045;-85
2022/05/01 11:14:07;;;;;;;11.70;7.03;;;23.30;51.90;;;;;;6300836;28;20669;-84
2022/05/01 11:17:12;;;;;;;11.52;6.80;;;23.20;52.10;;;;;;6300500;28;20523;-84
2022/05/01 11:20:29;;;;;;;8.55;6.85;;;23.10;51.40;;;;;;6302784;28;20044;-83
2022/05/01 11:23:34;;;;;;;12.25;7.60;;;22.60;52.90;;;;;;6303464;28;20477;-82
2022/05/01 11:26:37;;;;;;;9.68;6.13;;;22.60;53.50;;;;;;6301553;28;20067;-83
2022/05/01 11:30:20;;;;;;;9.80;7.38;;;22.70;53.30;;;;;;6300510;28;20075;-82
2022/05/01 11:33:23;;;;;;;11.32;6.82;;;22.70;52.70;;;;;;6304588;28;20527;-83
2022/05/01 11:36:53;;;;;;;10.40;6.65;;;22.70;52.90;;;;;;6304210;28;20052;-84
2022/05/01 11:40:27;;;;;;;9.18;6.68;;;22.80;53.00;;;;;;6302703;28;20048;-83
2022/05/01 11:43:34;;;;;;;11.13;6.82;;;22.80;52.40;;;;;;6303970;28;20044;-83
2022/05/01 11:46:39;;;;;;;11.52;7.10;;;22.80;52.90;;;;;;6302704;28;20406;-83
2022/05/01 11:49:41;;;;;;;11.43;7.32;;;22.90;53.60;;;;;;6302844;28;20067;-83
2022/05/01 11:52:45;;;;;;;10.75;7.38;;;22.90;53.40;;;;;;6303098;28;20048;-83
2022/05/01 12:02:27;;;;;;;11.10;6.85;;;23.00;53.00;;;;;;6304345;28;20414;-83
2022/05/01 12:05:30;;;;;;;13.85;7.30;;;23.10;53.40;;;;;;6305913;28;20119;-83
2022/05/01 12:08:32;;;;;;;12.48;8.00;;;23.30;53.30;;;;;;6305411;28;20071;-83
2022/05/01 12:11:34;;;;;;;23.30;13.50;;;23.40;52.40;;;;;;6296903;28;20036;-84
2022/05/01 12:14:35;;;;;;;11.98;8.40;;;23.50;55.10;;;;;;6307133;28;20048;-83
2022/05/01 12:17:42;;;;;;;10.27;6.60;;;23.50;53.80;;;;;;6305766;28;20056;-83
2022/05/01 12:20:44;;;;;;;10.30;6.53;;;23.50;53.20;;;;;;6305819;28;20506;-83
2022/05/01 12:23:48;;;;;;;11.18;6.47;;;23.30;52.40;;;;;;6306373;28;20048;-83
2022/05/01 12:26:52;;;;;;;9.32;6.40;;;23.10;53.80;;;;;;6306251;28;20044;-83
2022/05/01 12:29:55;;;;;;;12.95;7.60;;;22.90;53.90;;;;;;6295215;28;20059;-83
2022/05/01 12:32:58;;;;;;;12.88;6.40;;;22.80;53.60;;;;;;6302998;28;20446;-83
2022/05/01 12:36:01;;;;;;;11.32;6.75;;;22.80;54.30;;;;;;6304402;28;20045;-83
2022/05/01 12:39:04;;;;;;;12.55;6.93;;;22.90;54.30;;;;;;6302894;28;20055;-83
2022/05/01 12:45:35;;;;;;;13.00;8.50;;;23.00;53.40;;;;;;6302254;28;20402;-82
2022/05/01 12:48:43;;;;;;;10.98;7.28;;;23.10;53.00;;;;;;6302073;28;20045;-82
2022/05/01 12:51:45;;;;;;;19.70;13.45;;;23.10;53.00;;;;;;6304631;28;20448;-82
2022/05/01 12:55:09;;;;;;;9.52;7.10;;;22.80;53.60;;;;;;6304841;28;20604;-83
2022/05/01 12:58:11;;;;;;;9.48;6.45;;;22.50;53.90;;;;;;6299275;28;20051;-81
2022/05/01 13:01:23;;;;;;;11.40;6.63;;;22.30;55.00;;;;;;6304197;28;20048;-82
2022/05/01 13:04:29;;;;;;;11.93;7.80;;;22.10;55.00;;;;;;6304060;28;20048;-81
2022/05/01 13:07:31;;;;;;;11.93;5.22;;;21.90;55.20;;;;;;6303222;28;20047;-81
2022/05/01 13:10:33;;;;;;;7.70;5.45;;;22.00;56.00;;;;;;6300949;28;20044;-81
2022/05/01 13:13:44;;;;;;;9.57;6.25;;;22.00;55.60;;;;;;6302282;28;20681;-82
2022/05/01 13:16:47;;;;;;;8.27;5.20;;;22.00;55.50;;;;;;6303273;28;20041;-81
2022/05/01 13:19:50;;;;;;;6.90;4.95;;;22.30;56.10;;;;;;6303485;28;20040;-82
2022/05/01 13:22:52;;;;;;;9.38;4.90;;;22.70;55.30;;;;;;6302680;28;20048;-81
2022/05/01 13:25:54;;;;;;;7.03;5.35;;;23.20;54.30;;;;;;6301296;28;20517;-81
2022/05/01 13:28:57;;;;;;;6.80;4.70;;;23.80;53.10;;;;;;6296235;28;20041;-81
2022/05/01 13:32:00;;;;;;;9.73;6.30;;;24.20;51.80;;;;;;6301126;28;20056;-81
2022/05/01 13:35:04;;;;;;;7.20;5.10;;;24.40;51.30;;;;;;6301197;28;20418;-82
2022/05/01 13:38:07;;;;;;;6.30;4.40;;;24.50;50.10;;;;;;6300830;28;20056;-82
2022/05/01 13:44:48;;;;;;;6.68;4.38;;;23.60;48.90;;;;;;6300307;28;20127;-81
2022/05/01 13:47:49;;;;;;;5.45;4.15;;;23.20;50.30;;;;;;6301325;28;20036;-82
2022/05/01 13:50:53;;;;;;;6.68;4.88;;;22.80;50.90;;;;;;6300593;28;20452;-83
2022/05/01 13:53:54;;;;;;;7.75;4.43;;;22.30;52.90;;;;;;6302707;28;20048;-82
2022/05/01 13:56:56;;;;;;;6.75;4.43;;;22.00;54.50;;;;;;6296594;28;20057;-83
2022/05/01 13:59:58;;;;;;;11.57;10.18;;;21.90;55.50;;;;;;6298061;28;20163;-83
2022/05/01 14:03:00;;;;;;;6.80;5.40;;;21.70;56.00;;;;;;6300901;28;20520;-82
2022/05/01 14:06:04;;;;;;;10.20;5.10;;;21.60;56.70;;;;;;6302918;28;20128;-82
2022/05/01 14:09:05;;;;;;;14.65;5.50;;;21.40;56.30;;;;;;6301322;28;20040;-82
2022/05/01 14:12:09;;;;;;;8.65;5.32;;;21.30;56.80;;;;;;6294433;28;20139;-82
2022/05/01 14:15:10;;;;;;;9.68;5.90;;;21.10;57.10;;;;;;6278030;28;20045;-82
2022/05/01 14:18:16;;;;;;;10.20;5.40;;;20.90;57.80;;;;;;6275814;28;20506;-82
2022/05/01 14:21:20;;;;;;;11.68;5.07;;;21.00;58.60;;;;;;6277776;28;20063;-82
2022/05/01 14:24:22;;;;;;;6.57;4.93;;;21.40;58.70;;;;;;6277502;28;20047;-82
2022/05/01 14:27:23;;;;;;;10.32;5.05;;;21.60;57.30;;;;;;6286055;28;20561;-83
2022/05/01 14:30:25;;;;;;;8.85;5.88;;;21.60;55.70;;;;;;6269023;23;20073;-83
2022/05/01 14:33:33;;;;;;;6.85;4.53;;;21.70;56.90;;;;;;6237571;28;20065;-83
2022/05/01 14:36:38;;;;;;;10.45;5.00;;;22.00;55.20;;;;;;6235922;28;20054;-83
2022/05/01 14:39:42;;;;;;;6.82;5.20;;;22.60;54.60;;;;;;6230383;28;20102;-83
2022/05/01 14:42:48;;;;;;;5.13;4.00;;;23.10;53.80;;;;;;6240021;28;20064;-84
2022/05/01 14:45:57;;;;;;;7.63;4.05;;;23.60;52.80;;;;;;6230801;28;20147;-84
2022/05/01 14:49:12;;;;;;;6.05;3.85;;;24.10;51.40;;;;;;6229586;28;20124;-83
2022/05/01 14:52:16;;;;;;;9.07;3.92;;;24.50;48.60;;;;;;6229175;28;20073;-85
2022/05/01 14:55:20;;;;;;;8.75;5.05;;;24.50;49.30;;;;;;6229191;28;20065;-82
2022/05/01 15:08:30;;;;;;;5.60;3.70;;;23.30;50.20;;;;;;6227618;28;20121;-86
2022/05/01 15:11:33;;;;;;;7.78;3.83;;;23.10;48.70;;;;;;6227189;28;20127;-84
2022/05/01 15:14:35;;;;;;;7.85;3.95;;;22.80;50.70;;;;;;6200572;28;20057;-85
2022/05/01 15:17:41;;;;;;;9.40;5.15;;;22.90;50.50;;;;;;6206262;28;20050;-83
2022/05/01 15:20:49;;;;;;;6.13;4.28;;;22.60;52.30;;;;;;6203181;28;20127;-84
2022/05/01 15:23:58;;;;;;;8.27;3.95;;;22.50;54.00;;;;;;6206244;28;20042;-82
2022/05/01 15:27:05;;;;;;;7.57;4.53;;;22.30;53.60;;;;;;6202816;28;20136;-82
2022/05/01 15:30:08;;;;;;;5.72;4.35;;;21.60;55.20;;;;;;6231097;28;20096;-82
2022/05/01 15:33:42;;;;;;;6.30;3.90;;;21.00;56.40;;;;;;6229825;28;20144;-84
2022/05/01 15:36:45;;;;;;;10.32;4.97;;;20.60;57.70;;;;;;6230259;28;20048;-82
2022/05/01 15:39:58;;;;;;;7.50;4.18;;;20.30;59.00;;;;;;6235607;28;20052;-81
2022/05/01 15:43:01;;;;;;;8.30;4.75;;;20.00;60.00;;;;;;6235143;28;20050;-83
2022/05/01 15:46:21;;;;;;;12.50;5.03;;;20.00;60.40;;;;;;6237016;28;20052;-83
2022/05/01 15:56:07;;;;;;;6.63;4.40;;;20.30;60.10;;;;;;6227499;28;20034;-84
2022/05/01 15:59:10;;;;;;;8.60;4.00;;;20.40;59.60;;;;;;6224529;28;20057;-84
2022/05/01 16:02:19;;;;;;;10.85;4.90;;;20.30;59.70;;;;;;6233170;28;20064;-84
2022/05/01 16:05:22;;;;;;;7.35;4.28;;;20.30;59.80;;;;;;6208171;28;20042;-84
2022/05/01 16:08:28;;;;;;;7.75;4.53;;;20.30;60.00;;;;;;6197687;28;20047;-84
2022/05/01 16:11:42;;;;;;;6.65;4.32;;;20.40;60.50;;;;;;6189189;28;20043;-83
2022/05/01 16:14:50;;;;;;;7.25;4.25;;;20.60;60.20;;;;;;6195290;28;20046;-83
2022/05/01 16:18:19;;;;;;;7.35;4.45;;;20.60;59.90;;;;;;6186254;28;20497;-84
2022/05/01 16:21:27;;;;;;;12.20;5.00;;;20.70;60.20;;;;;;6182379;28;20042;-84
2022/05/01 16:24:33;;;;;;;9.73;5.53;;;20.70;60.30;;;;;;6181440;28;20053;-85
2022/05/01 16:27:39;;;;;;;7.00;4.55;;;20.60;60.60;;;;;;6196793;28;20077;-83
2022/05/01 16:30:46;;;;;;;8.45;5.40;;;20.50;60.80;;;;;;6230203;28;20499;-83
2022/05/01 16:34:03;;;;;;;10.65;4.78;;;20.40;60.90;;;;;;6229876;28;20115;-83
2022/05/01 16:37:10;;;;;;;7.60;5.30;;;20.20;61.00;;;;;;6230996;28;20042;-81
2022/05/01 16:40:15;;;;;;;6.47;4.55;;;20.10;61.50;;;;;;6216698;28;20058;-81
2022/05/01 16:43:19;;;;;;;8.70;5.80;;;19.90;62.70;;;;;;6206708;28;20057;-81
2022/05/01 16:46:21;;;;;;;14.85;7.70;;;19.80;63.80;;;;;;6210338;28;20424;-82
2022/05/01 16:49:24;;;;;;;14.00;6.38;;;19.60;64.70;;;;;;6210283;28;20393;-82
2022/05/01 16:52:26;;;;;;;6.63;5.38;;;19.50;65.50;;;;;;6208324;28;20050;-82
2022/05/01 16:55:31;;;;;;;10.73;5.38;;;19.30;65.30;;;;;;6210923;28;20056;-81
2022/05/01 16:58:36;;;;;;;8.77;5.82;;;19.20;66.30;;;;;;6224876;28;20042;-82
2022/05/01 17:01:45;;;;;;;10.02;5.88;;;19.00;66.50;;;;;;6231384;28;20050;-81
2022/05/01 17:04:59;;;;;;;8.27;5.50;;;18.80;67.50;;;;;;6216272;28;20060;-82
2022/05/01 17:08:11;;;;;;;9.57;5.63;;;18.70;68.20;;;;;;6206640;28;20168;-84
2022/05/01 17:11:20;;;;;;;6.70;4.72;;;18.60;68.50;;;;;;6207553;28;20082;-81
2022/05/01 17:14:41;;;;;;;8.43;6.03;;;18.50;69.30;;;;;;6206124;28;20105;-81
2022/05/01 17:18:06;;;;;;;7.20;5.00;;;18.50;70.10;;;;;;6188518;28;20074;-82